Terminal Aerodrome Forecast
Issued by NWS

Home | Current Version | Previous Version | Text Only | Print | Product List | Glossary On
Versions: 1 2 3 4 5 6 7 8 9 10 11 12 13
000
FTUS43 KEAX 211737
TAFSTJ
TAF
KSTJ 211737Z 2118/2218 05012KT P6SM SCT035 BKN100
     FM212100 04012G20KT P6SM SCT035 OVC100
     FM220500 04011KT P6SM OVC035
     FM221400 03009KT P6SM SCT035 BKN100=

USA.gov is the U.S. government's official web portal to all federal, state and local government web resources and services.